Time;durP1;ratioP1;P1;durP2;ratioP2;P2;SDS_P1;SDS_P2;PMS_P1;PMS_P2;Temp;Humidity;BMP_temperature;BMP_pressure;BME280_temperature;BME280_humidity;BME280_pressure;Samples;Min_cycle;Max_cycle;Signal;HPM_P1;HPM_P2
2022/03/11 00:00:39;;;;;;;12.02;4.53;;;6.80;84.50;;;6.22;68.19;97741.56;4984857;28;20046;-66
2022/03/11 00:03:07;;;;;;;10.25;4.35;;;6.70;84.80;;;6.10;69.10;97744.44;4967943;28;20076;-66
2022/03/11 00:05:35;;;;;;;9.98;4.82;;;6.60;85.00;;;6.28;68.54;97741.44;4983263;28;20066;-66
2022/03/11 00:08:02;;;;;;;10.30;4.78;;;6.70;85.00;;;6.17;68.74;97733.09;4983507;28;20082;-66
2022/03/11 00:10:31;;;;;;;8.25;4.32;;;6.70;85.00;;;5.99;70.68;97735.19;4980158;28;20146;-68
2022/03/11 00:12:58;;;;;;;9.25;4.32;;;6.60;85.60;;;5.99;70.67;97740.34;4982355;28;20053;-67
2022/03/11 00:15:26;;;;;;;9.52;4.57;;;6.50;85.50;;;5.98;70.31;97733.50;4983165;28;20066;-67
2022/03/11 00:17:53;;;;;;;9.57;4.40;;;6.50;85.30;;;5.93;71.49;97737.00;4969169;28;20054;-67
2022/03/11 00:20:21;;;;;;;9.30;4.53;;;6.50;85.80;;;5.82;72.45;97729.53;4981864;28;20054;-67
2022/03/11 00:22:49;;;;;;;9.77;4.55;;;6.40;85.90;;;5.83;72.53;97733.78;4979027;28;20104;-67
2022/03/11 00:25:18;;;;;;;8.15;4.68;;;6.40;86.10;;;5.71;73.87;97736.63;4978921;28;20086;-66
2022/03/11 00:27:45;;;;;;;10.63;4.57;;;6.30;86.80;;;5.65;74.57;97730.72;4980875;28;20050;-67
2022/03/11 00:30:14;;;;;;;7.65;4.60;;;6.30;86.90;;;5.57;74.91;97730.03;4982802;28;20157;-67
2022/03/11 00:32:41;;;;;;;10.85;4.68;;;6.10;87.10;;;5.35;77.75;97736.47;4986920;28;20201;-67
2022/03/11 00:35:10;;;;;;;9.50;4.88;;;6.00;88.60;;;5.24;77.05;97736.69;4984416;28;20066;-66
2022/03/11 00:37:39;;;;;;;9.10;4.43;;;5.90;88.30;;;5.27;77.81;97735.75;4969247;28;20047;-66
2022/03/11 00:40:07;;;;;;;9.18;4.93;;;5.80;89.10;;;5.24;77.55;97741.81;4986159;28;20124;-66
2022/03/11 00:42:34;;;;;;;9.00;5.00;;;5.80;89.20;;;5.07;79.47;97737.00;4984401;28;20042;-67
2022/03/11 00:45:02;;;;;;;10.30;4.57;;;5.70;90.10;;;5.27;77.48;97739.22;4984924;28;20082;-66
2022/03/11 00:47:29;;;;;;;7.57;3.90;;;5.70;90.00;;;5.29;77.39;97737.47;4983919;28;20094;-66
2022/03/11 00:49:56;;;;;;;11.60;4.90;;;5.80;90.10;;;5.29;78.14;97734.00;4967023;28;20122;-65
2022/03/11 00:52:24;;;;;;;8.50;4.45;;;5.80;90.10;;;5.22;77.76;97730.72;4979274;28;20173;-66
2022/03/11 00:54:51;;;;;;;9.02;4.85;;;5.80;90.20;;;5.17;79.65;97733.38;4981484;28;20146;-67
2022/03/11 00:57:17;;;;;;;8.00;4.07;;;5.80;90.40;;;5.05;80.23;97720.75;4981704;28;20188;-66
2022/03/11 00:59:44;;;;;;;13.05;5.07;;;5.70;90.90;;;5.01;80.41;97727.66;4981986;28;20496;-66
2022/03/11 01:02:11;;;;;;;8.20;4.35;;;5.60;90.80;;;4.88;81.92;97725.31;4981460;28;20077;-66
2022/03/11 01:04:39;;;;;;;9.73;4.32;;;5.50;91.30;;;4.86;82.16;97725.38;4979417;28;20073;-67
2022/03/11 01:07:06;;;;;;;9.60;4.68;;;5.50;91.70;;;4.80;82.92;97723.72;4987426;28;20536;-66
2022/03/11 01:09:34;;;;;;;7.32;3.47;;;5.40;92.00;;;4.81;82.74;97712.59;4983837;28;20078;-67
2022/03/11 01:12:01;;;;;;;10.52;4.70;;;5.40;92.60;;;4.90;82.14;97715.84;4983451;28;20535;-66
2022/03/11 01:14:28;;;;;;;10.07;4.47;;;5.40;92.80;;;4.91;82.58;97712.44;4981470;28;20169;-65
2022/03/11 01:16:55;;;;;;;11.00;4.95;;;5.40;93.10;;;4.88;82.00;97707.31;4984784;28;20129;-67
2022/03/11 01:19:23;;;;;;;7.85;4.35;;;5.40;93.10;;;4.90;82.25;97703.84;4984721;28;20541;-66
2022/03/11 01:21:50;;;;;;;10.70;4.32;;;5.40;93.30;;;4.82;83.19;97700.56;4967816;28;20213;-66
2022/03/11 01:24:17;;;;;;;8.25;4.05;;;5.40;93.60;;;4.79;83.61;97696.34;4978751;28;20070;-66
2022/03/11 01:26:44;;;;;;;12.00;3.70;;;5.40;93.80;;;4.72;84.31;97705.03;4987049;28;20062;-67
2022/03/11 01:29:11;;;;;;;8.27;3.80;;;5.30;93.90;;;4.73;84.38;97700.75;4982980;28;20109;-67
2022/03/11 01:31:38;;;;;;;9.45;4.30;;;5.30;94.30;;;4.76;85.48;97708.38;4985735;28;20097;-67
2022/03/11 01:34:05;;;;;;;8.82;4.30;;;5.40;94.50;;;4.61;87.01;97707.78;4985770;28;20046;-66
2022/03/11 01:36:33;;;;;;;9.80;4.00;;;;;;;4.38;88.29;97712.47;4983848;28;20084;-66
2022/03/11 01:39:04;;;;;;;8.15;4.75;;;;;;;4.41;88.11;97704.69;4984687;28;20079;-66
2022/03/11 01:41:35;;;;;;;11.13;4.75;;;;;;;4.43;88.16;97700.38;4967226;28;20050;-67
2022/03/11 01:44:14;;;;;;;9.48;4.50;;;;;;;4.21;91.58;97705.00;4984226;28;20133;-67
2022/03/11 01:47:07;;;;;;;8.05;4.03;;;;;;;4.00;93.65;97706.16;4983417;28;20081;-67
2022/03/11 01:49:37;;;;;;;8.90;4.47;;;;;;;3.66;97.00;97703.22;4986958;28;20505;-66
2022/03/11 01:52:04;;;;;;;10.30;4.82;;;;;;;3.76;96.32;97703.06;4981071;28;20484;-67
2022/03/11 01:54:32;;;;;;;9.70;5.07;;;;;;;3.53;97.39;97694.81;4986346;28;20493;-66
2022/03/11 01:56:59;;;;;;;8.45;4.32;;;4.50;81.60;;;3.60;96.64;97703.28;4983570;28;20551;-67
2022/03/11 01:59:25;;;;;;;9.63;4.65;;;4.10;73.50;;;3.15;100.00;97701.25;4986997;28;20389;-67
2022/03/11 02:01:53;;;;;;;8.80;4.40;;;3.80;75.10;;;3.20;100.00;97698.66;4982877;28;20600;-67
2022/03/11 02:04:20;;;;;;;11.80;4.97;;;3.70;75.70;;;3.50;98.25;97703.41;4984851;28;20062;-66
2022/03/11 02:06:49;;;;;;;9.27;4.82;;;3.80;74.70;;;3.19;100.00;97705.47;4984745;28;20064;-66
2022/03/11 02:09:16;;;;;;;8.45;4.78;;;3.70;75.90;;;2.90;100.00;97698.94;4984972;28;20042;-66
2022/03/11 02:11:46;;;;;;;9.18;4.60;;;3.50;76.60;;;3.09;100.00;97702.16;4982028;28;20050;-67
2022/03/11 02:14:14;;;;;;;8.77;4.35;;;3.60;76.50;;;2.83;100.00;97693.88;4986626;28;20557;-67
2022/03/11 02:16:41;;;;;;;9.80;4.90;;;3.40;77.60;;;2.80;100.00;97694.75;4979112;28;20570;-66
2022/03/11 02:19:09;;;;;;;10.00;4.72;;;3.30;78.10;;;2.82;100.00;97692.19;4986098;28;20057;-66
2022/03/11 02:21:44;;;;;;;9.48;4.68;;;3.20;78.10;;;2.90;100.00;97686.13;4989301;28;20046;-66
2022/03/11 02:24:12;;;;;;;10.43;5.07;;;3.20;78.10;;;2.83;100.00;97688.75;4988449;28;20077;-66
2022/03/11 02:26:39;;;;;;;11.77;5.45;;;3.30;78.40;;;2.99;100.00;97681.75;4984605;28;20469;-66
2022/03/11 02:29:06;;;;;;;11.00;5.47;;;3.40;77.80;;;3.33;100.00;97677.09;4989219;28;20078;-67
2022/03/11 02:31:33;;;;;;;9.88;5.05;;;3.60;78.00;;;3.37;100.00;97678.75;4985070;28;20070;-67
2022/03/11 02:34:03;;;;;;;10.77;5.60;;;3.70;77.60;;;3.41;100.00;97677.84;4979954;28;20054;-67
2022/03/11 02:36:31;;;;;;;11.68;5.57;;;3.80;77.30;;;3.33;100.00;97666.81;4981157;28;20068;-67
2022/03/11 02:38:59;;;;;;;10.70;5.63;;;3.80;77.70;;;3.41;100.00;97672.72;4983136;28;20162;-67
2022/03/11 02:41:26;;;;;;;12.55;5.80;;;3.80;78.60;;;3.53;100.00;97672.53;4985659;28;20125;-66
2022/03/11 02:43:53;;;;;;;10.77;5.43;;;3.90;78.00;;;3.22;100.00;97672.09;4983898;28;20053;-67
2022/03/11 02:46:20;;;;;;;11.65;5.55;;;3.90;77.90;;;3.29;100.00;97675.44;4986401;28;20630;-67
2022/03/11 02:48:47;;;;;;;10.70;6.10;;;3.80;78.50;;;3.27;100.00;97672.03;4984711;28;20122;-66
2022/03/11 02:51:15;;;;;;;9.73;5.28;;;3.80;78.40;;;3.04;100.00;97669.75;4986952;28;20042;-65
2022/03/11 02:53:42;;;;;;;10.70;5.80;;;3.70;78.60;;;2.99;100.00;97667.25;4982165;28;20138;-66
2022/03/11 02:56:10;;;;;;;9.57;5.25;;;3.60;79.20;;;2.84;100.00;97664.81;4983211;28;20086;-66
2022/03/11 02:58:39;;;;;;;8.40;4.80;;;3.40;79.80;;;2.87;100.00;97667.34;4968418;28;20050;-66
2022/03/11 03:01:07;;;;;;;14.40;5.50;;;3.30;80.60;;;2.65;100.00;97666.75;4988037;28;20058;-67
2022/03/11 03:03:35;;;;;;;8.50;4.88;;;;;;;2.41;100.00;97663.50;4979284;28;20054;-66
2022/03/11 03:06:04;;;;;;;13.02;5.82;;;2.90;82.50;;;2.18;100.00;97661.16;4983624;28;20093;-66
2022/03/11 03:08:32;;;;;;;9.27;5.10;;;3.00;92.10;;;2.04;100.00;97662.97;4978601;28;20141;-67
2022/03/11 03:10:59;;;;;;;9.90;5.63;;;2.70;83.60;;;2.24;100.00;97655.16;4981267;28;20047;-67
2022/03/11 03:13:26;;;;;;;13.60;5.75;;;2.70;84.80;;;1.96;100.00;97652.81;4980799;28;20042;-66
2022/03/11 03:15:54;;;;;;;13.77;6.05;;;2.60;85.00;;;1.87;100.00;97652.84;4982205;28;20070;-67
2022/03/11 03:18:21;;;;;;;12.02;5.93;;;2.50;85.90;;;1.67;100.00;97658.09;4982035;28;20052;-66
2022/03/11 03:20:48;;;;;;;11.00;5.70;;;2.40;85.70;;;1.79;100.00;97668.25;4981157;28;20081;-67
2022/03/11 03:23:15;;;;;;;10.50;5.97;;;2.40;86.40;;;1.88;100.00;97664.78;4985202;28;20088;-66
2022/03/11 03:25:43;;;;;;;10.77;5.93;;;2.40;86.20;;;2.05;100.00;97673.22;4968609;28;20468;-66
2022/03/11 03:28:12;;;;;;;10.60;5.80;;;2.40;87.20;;;2.02;100.00;97672.38;4980032;28;20047;-66
2022/03/11 03:30:39;;;;;;;12.68;6.18;;;2.50;87.50;;;2.06;100.00;97672.34;4983493;28;20074;-67
2022/03/11 03:33:06;;;;;;;13.68;6.50;;;2.50;87.70;;;1.60;100.00;97671.78;4977160;28;20587;-66
2022/03/11 03:35:34;;;;;;;13.75;6.90;;;2.30;89.30;;;1.62;100.00;97677.72;4983610;28;20141;-66
2022/03/11 03:38:06;;;;;;;14.68;6.57;;;2.20;90.00;;;1.61;100.00;97668.38;4982426;28;20141;-67
2022/03/11 03:40:33;;;;;;;11.65;6.85;;;2.20;90.30;;;1.63;100.00;97666.66;4981768;28;20078;-66
2022/03/11 03:43:00;;;;;;;11.40;6.45;;;2.20;90.40;;;1.49;100.00;97673.56;4986257;28;20134;-67
2022/03/11 03:45:28;;;;;;;12.52;6.30;;;2.10;90.80;;;1.37;100.00;97672.75;4982731;28;20584;-66
2022/03/11 03:47:55;;;;;;;11.90;6.47;;;;;;;1.38;100.00;97674.44;4984514;28;20081;-66
2022/03/11 03:50:23;;;;;;;13.80;7.40;;;;;;;1.22;100.00;97683.88;4986216;28;20066;-67
2022/03/11 03:52:50;;;;;;;17.75;8.10;;;;;;;0.90;100.00;97681.44;4981717;28;20181;-67
2022/03/11 03:55:17;;;;;;;11.45;6.55;;;;;;;0.78;100.00;97673.81;4983244;28;20078;-66
2022/03/11 03:57:44;;;;;;;13.38;6.93;;;;;;;0.91;100.00;97675.44;4980839;28;20073;-67
2022/03/11 04:00:13;;;;;;;12.05;6.90;;;;;;;0.83;100.00;97674.66;4984366;28;20070;-66
2022/03/11 04:02:47;;;;;;;14.20;7.18;;;;;;;0.66;100.00;97674.66;4983071;28;20082;-66
2022/03/11 04:05:16;;;;;;;14.02;7.35;;;;;;;0.82;100.00;97675.47;4980177;28;20110;-66
2022/03/11 04:07:44;;;;;;;14.68;8.07;;;;;;;0.63;100.00;97679.78;4983154;28;20128;-66
2022/03/11 04:10:13;;;;;;;13.80;7.70;;;;;;;0.62;100.00;97684.03;4984272;28;20196;-66
2022/03/11 04:12:41;;;;;;;13.15;7.63;;;;;;;0.49;100.00;97682.34;4982699;28;20073;-66
2022/03/11 04:15:09;;;;;;;14.57;8.10;;;;;;;0.26;100.00;97684.91;4982103;28;20085;-67
2022/03/11 04:17:36;;;;;;;14.43;7.05;;;1.20;99.60;;;0.38;100.00;97684.06;4964191;28;20108;-66
2022/03/11 04:20:05;;;;;;;15.25;7.85;;;1.10;99.90;;;0.31;100.00;97685.75;4983682;28;20121;-66
2022/03/11 04:22:32;;;;;;;16.90;8.43;;;1.00;99.90;;;0.35;100.00;97684.91;4980723;28;20050;-67
2022/03/11 04:24:59;;;;;;;15.50;8.00;;;1.00;99.90;;;0.39;100.00;97685.78;4981700;28;20043;-67
2022/03/11 04:27:25;;;;;;;15.38;8.77;;;1.00;99.90;;;0.16;100.00;97678.09;4982120;28;20512;-66
2022/03/11 04:29:52;;;;;;;14.38;8.32;;;0.90;99.90;;;0.06;100.00;97681.50;4985126;28;20047;-67
2022/03/11 04:32:19;;;;;;;15.65;8.98;;;0.80;99.90;;;-0.01;100.00;97686.59;4984800;28;20075;-67
2022/03/11 04:34:47;;;;;;;16.40;8.50;;;0.70;99.90;;;-0.08;100.00;97686.59;4984870;28;20117;-65
2022/03/11 04:37:16;;;;;;;18.70;9.27;;;0.70;99.90;;;-0.31;100.00;97684.00;4969025;28;20141;-67
2022/03/11 04:39:44;;;;;;;15.10;8.20;;;0.50;99.90;;;-0.28;100.00;97686.56;4981684;28;20121;-67
2022/03/11 04:42:11;;;;;;;15.30;8.90;;;0.40;99.90;;;-0.29;100.00;97680.63;4987750;28;20054;-67
2022/03/11 04:44:37;;;;;;;14.25;8.00;;;0.40;99.90;;;-0.10;100.00;97685.75;4987839;28;20047;-67
2022/03/11 04:47:05;;;;;;;16.27;8.77;;;0.50;99.90;;;-0.12;100.00;97682.34;4988282;28;20129;-67
2022/03/11 04:49:32;;;;;;;15.02;9.13;;;0.50;99.90;;;-0.26;100.00;97693.38;4983106;28;20074;-67
2022/03/11 04:51:59;;;;;;;14.30;8.85;;;0.50;99.90;;;-0.40;100.00;97679.75;4987804;28;20504;-67
2022/03/11 04:54:26;;;;;;;18.60;9.55;;;0.40;99.90;;;-0.44;100.00;97680.56;4986441;28;20154;-67
2022/03/11 04:56:53;;;;;;;15.30;8.95;;;0.30;99.90;;;-0.32;100.00;97678.06;4987454;28;20462;-66
2022/03/11 04:59:20;;;;;;;16.65;9.43;;;0.30;99.90;;;-0.67;100.00;97671.16;4985555;28;20046;-67
2022/03/11 05:01:47;;;;;;;15.57;8.57;;;0.30;99.90;;;-0.70;100.00;97672.84;4989300;28;20201;-67
2022/03/11 05:04:14;;;;;;;15.10;8.15;;;0.20;99.90;;;-0.48;100.00;97673.75;4973742;28;20049;-67
2022/03/11 05:06:41;;;;;;;15.07;8.70;;;0.10;99.90;;;-0.65;100.00;97673.72;4990540;28;20055;-66
2022/03/11 05:09:08;;;;;;;18.77;10.25;;;0.10;99.90;;;-0.51;100.00;97677.16;4984884;28;20126;-67
2022/03/11 05:11:36;;;;;;;13.57;8.10;;;0.10;99.90;;;-0.55;100.00;97675.44;4988877;28;20081;-66
2022/03/11 05:14:04;;;;;;;16.23;7.82;;;0.20;99.90;;;-0.30;100.00;97678.06;4985239;28;20210;-67
2022/03/11 05:16:32;;;;;;;15.40;9.63;;;0.20;99.90;;;-0.63;100.00;97670.31;4987421;28;20054;-66
2022/03/11 05:18:59;;;;;;;19.10;9.80;;;0.20;99.90;;;-0.49;100.00;97667.81;4984168;28;20058;-68
2022/03/11 05:21:26;;;;;;;15.45;9.10;;;0.10;99.90;;;-0.45;100.00;97669.53;4987540;28;20085;-67
2022/03/11 05:23:53;;;;;;;16.95;9.00;;;0.10;99.90;;;-0.69;100.00;97672.00;4968402;28;20070;-66
2022/03/11 05:26:28;;;;;;;16.17;9.10;;;0.00;99.90;;;-0.75;100.00;97670.28;4985711;28;20121;-67
2022/03/11 05:28:58;;;;;;;16.77;8.90;;;-0.10;99.90;;;-0.77;100.00;97666.03;4984013;28;20046;-68
2022/03/11 05:31:27;;;;;;;14.40;9.20;;;0.00;99.90;;;-0.76;100.00;97676.22;4987610;28;20046;-66
2022/03/11 05:33:55;;;;;;;17.10;9.65;;;0.00;99.90;;;-0.91;100.00;97678.72;4986283;28;20129;-69
2022/03/11 05:36:25;;;;;;;19.35;10.27;;;-0.10;99.90;;;-0.96;100.00;97682.94;4985890;28;20086;-67
2022/03/11 05:38:52;;;;;;;16.30;9.88;;;-0.30;99.90;;;-0.84;100.00;97683.00;4985368;28;20133;-67
2022/03/11 05:41:19;;;;;;;15.88;10.00;;;-0.20;99.90;;;-0.77;100.00;97688.97;4984777;28;20073;-68
2022/03/11 05:43:46;;;;;;;16.40;10.45;;;-0.10;99.90;;;-0.77;100.00;97688.97;4982474;28;20043;-66
2022/03/11 05:46:13;;;;;;;16.83;10.50;;;-0.10;99.90;;;-0.87;100.00;97690.63;4982692;28;20046;-67
2022/03/11 05:48:41;;;;;;;21.25;10.50;;;-0.20;99.90;;;-0.91;100.00;97684.66;4981041;28;20122;-67
2022/03/11 05:51:08;;;;;;;19.05;11.45;;;-0.20;99.90;;;-0.90;100.00;97680.41;4986736;28;20113;-67
2022/03/11 05:53:35;;;;;;;18.83;10.45;;;-0.20;99.90;;;-1.12;100.00;97682.00;4967199;28;20074;-66
2022/03/11 05:56:02;;;;;;;18.42;10.50;;;-0.20;99.90;;;-1.04;100.00;97682.06;4982328;28;20133;-67
2022/03/11 05:58:29;;;;;;;18.60;11.65;;;-0.30;99.90;;;-1.18;100.00;97681.97;4985648;28;20121;-66
2022/03/11 06:00:57;;;;;;;21.45;11.98;;;-0.30;99.90;;;-1.13;100.00;97686.25;4986421;28;20511;-66
2022/03/11 06:03:24;;;;;;;20.00;10.52;;;-0.40;99.90;;;-0.94;100.00;97684.63;4982976;28;20049;-68
2022/03/11 06:05:51;;;;;;;25.83;12.75;;;-0.30;99.90;;;-1.11;100.00;97684.56;4984257;28;20038;-67
2022/03/11 06:08:18;;;;;;;22.08;12.32;;;-0.40;99.90;;;-0.99;100.00;97685.47;4983730;28;20142;-67
2022/03/11 06:10:47;;;;;;;20.60;12.07;;;-0.40;99.90;;;-1.01;100.00;97684.59;4980964;28;20078;-67
2022/03/11 06:13:14;;;;;;;29.67;12.07;;;-0.30;99.90;;;-0.84;100.00;97688.09;4979621;28;20092;-68
2022/03/11 06:15:42;;;;;;;21.35;11.52;;;-0.20;99.90;;;-1.03;100.00;97682.03;4982264;28;20058;-66
2022/03/11 06:18:12;;;;;;;23.13;12.13;;;-0.20;99.90;;;-0.89;100.00;97687.19;4984122;28;20050;-66
2022/03/11 06:20:39;;;;;;;23.00;13.32;;;-0.20;99.90;;;-0.95;100.00;97682.94;4984730;28;20077;-66
2022/03/11 06:23:06;;;;;;;22.92;12.50;;;-0.10;99.90;;;-0.74;100.00;97676.22;4986244;28;20046;-66
2022/03/11 06:25:33;;;;;;;20.92;13.70;;;-0.10;99.90;;;-0.96;100.00;97685.47;4985730;28;20050;-67
2022/03/11 06:28:00;;;;;;;24.13;13.73;;;-0.10;99.90;;;-0.85;100.00;97684.66;4981288;28;20519;-66
2022/03/11 06:30:29;;;;;;;22.85;12.30;;;-0.10;99.90;;;-0.90;100.00;97688.06;4982724;28;20052;-67
2022/03/11 06:32:56;;;;;;;22.30;12.63;;;-0.10;99.90;;;-1.01;100.00;97694.81;4979939;28;20500;-69
2022/03/11 06:35:23;;;;;;;23.67;12.52;;;-0.10;99.90;;;-0.84;100.00;97688.09;4974639;28;20095;-68
2022/03/11 06:37:50;;;;;;;20.88;11.70;;;-0.10;99.90;;;-0.84;100.00;97693.19;4979648;28;20185;-66
2022/03/11 06:40:18;;;;;;;31.33;13.88;;;0.00;99.90;;;-0.83;100.00;97689.78;4971651;28;20057;-66
2022/03/11 06:42:48;;;;;;;20.67;12.43;;;0.00;99.90;;;-0.82;100.00;97688.97;4980586;28;20130;-66
2022/03/11 06:45:18;;;;;;;21.10;13.02;;;0.00;99.90;;;-0.73;100.00;97686.44;4984150;28;20085;-67
2022/03/11 06:47:46;;;;;;;24.33;14.32;;;0.00;99.90;;;-0.73;100.00;97693.22;4978164;28;20055;-67
2022/03/11 06:50:15;;;;;;;22.60;14.32;;;0.00;99.90;;;-0.82;100.00;97688.97;4982475;28;20081;-67
2022/03/11 06:52:43;;;;;;;21.85;13.35;;;0.00;99.90;;;-0.66;100.00;97689.88;4979914;28;20104;-67
2022/03/11 06:55:11;;;;;;;23.50;13.07;;;0.10;99.90;;;-0.59;100.00;97689.03;4979885;28;20109;-68
2022/03/11 06:57:38;;;;;;;26.65;14.00;;;0.20;99.90;;;-0.32;100.00;97689.94;4970117;28;20054;-66
2022/03/11 07:00:08;;;;;;;23.17;13.80;;;0.30;99.90;;;-0.17;100.00;97695.09;4980153;28;20058;-67
2022/03/11 07:02:52;;;;;;;21.10;13.15;;;0.50;99.90;;;-0.06;100.00;97692.56;4978599;28;20559;-67
2022/03/11 07:05:20;;;;;;;23.48;13.43;;;0.60;99.90;;;-0.27;100.00;97694.22;4979086;28;20457;-68
2022/03/11 07:07:47;;;;;;;26.98;14.27;;;0.80;99.90;;;-0.07;100.00;97694.28;4981496;28;20619;-67
2022/03/11 07:10:16;;;;;;;24.55;14.82;;;0.80;99.90;;;-0.03;100.00;97698.50;4981258;28;20631;-68
2022/03/11 07:13:00;;;;;;;25.60;14.60;;;0.80;99.90;;;0.25;100.00;97688.34;4984702;28;20057;-69
2022/03/11 07:15:27;;;;;;;21.88;14.05;;;1.00;99.90;;;0.40;100.00;97697.69;4982652;28;20504;-67
2022/03/11 07:17:54;;;;;;;23.67;12.93;;;1.10;99.90;;;0.67;100.00;97694.25;4981465;28;20760;-67
2022/03/11 07:20:21;;;;;;;21.45;12.68;;;1.30;99.90;;;0.81;100.00;97694.22;4978558;28;20128;-68
2022/03/11 07:23:08;;;;;;;26.67;16.00;;;1.40;99.90;;;0.73;100.00;97691.69;4983274;28;20050;-67
2022/03/11 07:25:53;;;;;;;25.45;13.95;;;1.50;99.90;;;0.92;100.00;97691.66;4979154;28;20048;-67
2022/03/11 07:28:20;;;;;;;21.77;12.73;;;1.70;99.90;;;1.25;100.00;97691.56;4979588;28;20051;-67
2022/03/11 07:30:48;;;;;;;24.15;13.32;;;1.90;99.90;;;1.30;100.00;97693.22;4981059;28;20057;-67
2022/03/11 07:33:15;;;;;;;23.48;13.27;;;2.00;99.90;;;1.55;100.00;97687.16;4981755;28;20484;-68
2022/03/11 07:35:42;;;;;;;26.23;15.27;;;2.20;99.90;;;1.65;100.00;97678.56;4969783;28;20121;-66
2022/03/11 07:38:09;;;;;;;23.30;15.18;;;2.40;99.90;;;1.74;100.00;97685.34;4982310;28;20147;-67
2022/03/11 07:40:36;;;;;;;22.50;13.18;;;2.50;99.90;;;1.99;100.00;97682.66;4982440;28;20073;-65
2022/03/11 07:43:03;;;;;;;24.65;13.23;;;2.70;99.90;;;2.20;100.00;97679.06;4982081;28;20141;-68
2022/03/11 07:45:30;;;;;;;23.77;14.88;;;2.80;99.90;;;2.32;100.00;97678.13;4982391;28;20046;-67
2022/03/11 07:47:57;;;;;;;27.05;15.68;;;3.00;99.90;;;2.29;100.00;97671.31;4982666;28;20094;-68
2022/03/11 07:50:24;;;;;;;27.05;15.95;;;3.10;99.90;;;2.42;100.00;97672.91;4981721;28;20121;-67
2022/03/11 07:52:51;;;;;;;23.00;15.25;;;3.20;99.90;;;2.57;100.00;97674.47;4983527;28;20081;-67
2022/03/11 07:55:19;;;;;;;24.65;14.10;;;3.60;99.90;;;2.73;100.00;97673.47;4973087;28;20088;-67
2022/03/11 07:57:46;;;;;;;22.88;13.77;;;4.00;99.90;;;3.38;100.00;97672.78;4981100;28;20743;-67
2022/03/11 08:00:14;;;;;;;25.63;14.50;;;4.50;99.90;;;4.07;100.00;97664.09;4982827;28;20050;-67
2022/03/11 08:02:41;;;;;;;22.98;13.82;;;4.90;99.90;;;4.51;100.00;97657.38;4979514;28;20042;-67
2022/03/11 08:05:17;;;;;;;23.95;15.07;;;5.30;99.90;;;4.89;100.00;97658.44;4980491;28;20065;-66
2022/03/11 08:07:49;;;;;;;22.85;14.40;;;5.70;99.50;;;5.51;100.00;97652.91;4979976;28;20086;-66
2022/03/11 08:10:17;;;;;;;21.95;13.80;;;6.10;98.30;;;6.42;100.00;97646.56;4981673;28;20070;-67
2022/03/11 08:12:45;;;;;;;21.88;14.93;;;6.60;96.90;;;6.81;100.00;97645.59;4982541;28;20065;-66
2022/03/11 08:15:30;;;;;;;21.48;14.63;;;6.90;95.20;;;6.42;100.00;97653.44;4980858;28;20053;-66
2022/03/11 08:17:57;;;;;;;23.00;14.38;;;6.90;93.60;;;6.27;100.00;97650.38;4963831;28;20085;-68
2022/03/11 08:20:24;;;;;;;22.05;14.98;;;7.00;93.00;;;6.91;100.00;97647.88;4981449;28;20050;-66
2022/03/11 08:22:51;;;;;;;20.45;14.57;;;7.10;92.50;;;7.32;100.00;97647.59;4980926;28;20663;-67
2022/03/11 08:25:36;;;;;;;20.17;13.63;;;7.40;92.70;;;8.07;100.00;97637.59;4980864;28;20124;-67
2022/03/11 08:28:04;;;;;;;22.02;14.65;;;7.90;91.80;;;7.51;100.00;97642.78;4978957;28;20459;-67
2022/03/11 08:30:32;;;;;;;20.42;14.43;;;8.00;90.60;;;8.13;100.00;97642.59;4975650;28;20099;-67
2022/03/11 08:32:59;;;;;;;22.95;14.00;;;8.20;90.40;;;9.04;100.00;97643.94;4978247;28;20089;-68
2022/03/11 08:35:47;;;;;;;20.52;14.10;;;8.50;90.30;;;8.45;98.62;97637.31;4982809;28;20042;-67
2022/03/11 08:38:34;;;;;;;20.73;13.38;;;8.50;87.60;;;8.10;100.00;97636.69;4983206;28;20046;-66
2022/03/11 08:41:04;;;;;;;19.50;13.32;;;8.60;88.00;;;9.19;97.21;97631.28;4982163;28;20141;-67
2022/03/11 08:43:31;;;;;;;21.25;13.63;;;8.90;86.80;;;8.99;95.41;97625.97;4965451;28;20054;-68
2022/03/11 08:45:58;;;;;;;21.98;14.10;;;9.00;85.60;;;9.07;95.57;97636.88;4981786;28;21487;-66
2022/03/11 08:48:25;;;;;;;20.60;13.10;;;9.10;84.30;;;9.33;95.09;97632.53;4950060;28;20437;-67
2022/03/11 08:51:10;;;;;;;19.48;14.00;;;9.20;84.60;;;9.74;91.35;97630.09;4980974;28;20540;-67
2022/03/11 08:53:37;;;;;;;22.70;13.10;;;9.50;83.20;;;9.99;90.61;97636.06;4981238;28;20109;-67
2022/03/11 08:56:05;;;;;;;15.95;11.73;;;9.80;81.80;;;10.30;90.56;97640.03;4977994;28;20137;-67
2022/03/11 08:58:32;;;;;;;18.67;13.18;;;10.20;81.50;;;10.68;83.33;97641.06;4969471;28;20129;-68
2022/03/11 09:00:59;;;;;;;19.45;13.45;;;10.30;79.00;;;10.70;84.97;97637.53;4961107;28;20129;-67
2022/03/11 09:03:27;;;;;;;16.00;12.32;;;10.50;78.90;;;10.41;82.60;97642.19;4968686;28;20112;-67
2022/03/11 09:05:54;;;;;;;18.13;12.50;;;10.50;77.20;;;11.25;83.82;97646.41;4983555;28;20125;-67
2022/03/11 09:08:21;;;;;;;16.20;12.23;;;10.90;77.60;;;11.99;78.32;97642.22;4981841;28;20110;-68
2022/03/11 09:10:48;;;;;;;16.70;12.52;;;11.20;76.70;;;10.70;79.81;97630.63;4983312;28;20070;-66
2022/03/11 09:13:16;;;;;;;17.33;11.48;;;11.00;75.50;;;11.55;82.07;97635.53;4979194;28;20077;-66
2022/03/11 09:15:43;;;;;;;15.13;10.98;;;11.40;75.70;;;12.67;75.33;97635.44;4979331;28;20537;-66
2022/03/11 09:18:10;;;;;;;16.08;11.07;;;11.60;74.50;;;12.96;73.44;97633.13;4978031;28;20065;-67
2022/03/11 09:20:39;;;;;;;17.55;11.73;;;11.90;74.70;;;12.23;67.83;97630.66;4980595;28;20047;-67
2022/03/11 09:23:07;;;;;;;14.70;11.38;;;11.90;71.70;;;13.33;67.09;97632.06;4981691;28;20082;-66
2022/03/11 09:25:36;;;;;;;15.52;11.02;;;12.40;72.40;;;13.02;72.77;97631.94;4965174;28;20125;-66
2022/03/11 09:28:10;;;;;;;15.52;10.98;;;12.70;72.50;;;13.66;66.80;97631.22;4983234;28;20050;-66
2022/03/11 09:30:37;;;;;;;16.67;11.18;;;12.90;70.40;;;12.84;67.16;97633.72;4968873;28;20042;-65
2022/03/11 09:33:04;;;;;;;15.73;11.43;;;12.70;70.60;;;12.79;67.27;97633.97;4985140;28;20051;-66
2022/03/11 09:35:31;;;;;;;16.45;11.88;;;12.50;70.70;;;12.57;66.50;97631.63;4984624;28;20097;-66
2022/03/11 09:37:58;;;;;;;15.98;11.85;;;12.00;71.10;;;12.15;67.80;97640.56;4980458;28;20078;-67
2022/03/11 09:40:27;;;;;;;17.42;12.45;;;11.60;71.60;;;12.50;64.72;97638.03;4991326;28;20616;-66
2022/03/11 09:42:56;;;;;;;17.45;11.85;;;11.00;72.30;;;11.99;67.56;97650.88;4978335;28;20150;-66
2022/03/11 09:45:26;;;;;;;18.35;12.43;;;10.70;73.10;;;11.80;68.36;97621.41;4984104;28;20058;-67
2022/03/11 09:47:55;;;;;;;22.85;13.00;;;10.40;74.40;;;10.60;72.61;97613.72;4979060;28;20101;-66
2022/03/11 09:50:28;;;;;;;19.30;12.00;;;10.20;74.30;;;10.51;76.00;97611.53;4970882;28;20075;-67
2022/03/11 09:52:55;;;;;;;18.42;12.35;;;10.00;75.20;;;10.77;76.56;97611.28;4982005;28;20078;-66
2022/03/11 09:55:22;;;;;;;18.10;12.63;;;10.00;75.90;;;9.89;79.58;97621.75;4973141;28;20086;-66
2022/03/11 09:57:49;;;;;;;16.40;11.63;;;9.80;76.00;;;9.62;81.57;97623.66;4982067;28;20448;-65
2022/03/11 10:00:17;;;;;;;20.10;11.48;;;9.80;76.30;;;9.63;82.27;97633.13;4982355;28;20096;-66
2022/03/11 10:02:47;;;;;;;16.83;11.23;;;9.70;76.30;;;9.42;83.17;97634.78;4979970;28;20042;-67
2022/03/11 10:05:15;;;;;;;14.93;11.45;;;9.70;76.50;;;8.89;82.64;97633.19;4980295;28;20108;-67
2022/03/11 10:08:05;;;;;;;18.40;11.60;;;9.40;75.60;;;8.68;85.89;97628.78;4980264;28;20133;-67
2022/03/11 10:10:32;;;;;;;15.45;11.65;;;9.20;77.00;;;8.67;87.80;97625.34;4984616;28;20070;-67
2022/03/11 10:13:11;;;;;;;18.27;11.02;;;9.20;77.20;;;8.73;89.83;97632.03;4985371;28;20076;-67
2022/03/11 10:15:41;;;;;;;19.75;12.40;;;9.20;78.40;;;8.65;87.21;97626.31;4980595;28;20066;-65
2022/03/11 10:18:14;;;;;;;16.35;11.10;;;9.30;76.90;;;8.51;87.26;97629.34;4982468;28;20042;-67
2022/03/11 10:20:42;;;;;;;20.60;12.75;;;9.30;76.80;;;8.55;88.64;97633.50;4984919;28;20038;-66
2022/03/11 10:23:12;;;;;;;18.45;11.00;;;9.30;77.20;;;8.42;87.38;97616.72;4986508;28;20523;-66
2022/03/11 10:25:42;;;;;;;22.67;11.85;;;9.30;76.50;;;8.61;91.10;97620.38;4984006;28;20836;-67